Time;durP1;ratioP1;P1;durP2;ratioP2;P2;SDS_P1;SDS_P2;PMS_P1;PMS_P2;Temp;Humidity;BMP_temperature;BMP_pressure;BME280_temperature;BME280_humidity;BME280_pressure;Samples;Min_cycle;Max_cycle;Signal;HPM_P1;HPM_P2
2022/08/01 00:03:59;;;;;;;4.63;2.90;;;;;;;;;;12966057;22;20016;-83
2022/08/01 00:09:06;;;;;;;3.40;2.40;;;;;;;;;;12970322;22;20075;-83
2022/08/01 00:14:13;;;;;;;5.10;2.70;;;;;;;;;;12966518;22;20020;-83
2022/08/01 00:19:28;;;;;;;5.10;2.80;;;;;;;;;;12941635;22;20445;-83
2022/08/01 00:24:38;;;;;;;2.58;2.28;;;;;;;;;;12969592;22;20343;-83
2022/08/01 00:29:52;;;;;;;5.45;2.58;;;;;;;;;;12946401;22;20027;-82
2022/08/01 00:35:17;;;;;;;4.40;2.30;;;;;;;;;;12945237;22;20477;-83
2022/08/01 00:40:23;;;;;;;2.90;2.10;;;;;;;;;;12946693;22;20023;-83
2022/08/01 00:45:30;;;;;;;3.40;2.75;;;;;;;;;;12898154;22;20057;-83
2022/08/01 00:50:44;;;;;;;3.00;2.70;;;;;;;;;;12921260;22;20020;-85
2022/08/01 00:55:53;;;;;;;4.18;3.00;;;;;;;;;;12971498;22;20378;-82
2022/08/01 01:01:07;;;;;;;3.67;2.50;;;;;;;;;;12947156;22;20417;-82
2022/08/01 01:06:41;;;;;;;3.22;2.50;;;;;;;;;;12944937;22;20431;-82
2022/08/01 01:11:50;;;;;;;4.50;2.55;;;;;;;;;;12971472;22;20497;-82
2022/08/01 01:17:03;;;;;;;3.92;2.70;;;;;;;;;;12944398;22;20027;-82
2022/08/01 01:22:31;;;;;;;4.65;2.75;;;;;;;;;;12945554;22;20042;-83
2022/08/01 01:27:52;;;;;;;2.35;1.88;;;;;;;;;;12972693;22;20323;-83
2022/08/01 01:33:05;;;;;;;4.53;2.50;;;;;;;;;;12944551;22;20123;-83
2022/08/01 01:38:22;;;;;;;4.07;2.40;;;;;;;;;;12944429;22;20351;-84
2022/08/01 01:43:32;;;;;;;3.63;2.63;;;;;;;;;;12971797;22;20442;-83
2022/08/01 01:48:46;;;;;;;4.20;2.80;;;;;;;;;;12991440;22;20019;-83
2022/08/01 01:53:54;;;;;;;4.05;2.80;;;;;;;;;;12943486;22;20371;-81
2022/08/01 01:59:00;;;;;;;4.63;2.60;;;;;;;;;;12992025;22;20095;-84
2022/08/01 02:04:17;;;;;;;4.22;2.25;;;;;;;;;;12943526;22;20027;-84
2022/08/01 02:09:25;;;;;;;5.57;2.70;;;;;;;;;;12971592;22;20069;-83
2022/08/01 02:14:34;;;;;;;4.82;2.65;;;;;;;;;;12942960;22;20016;-83
2022/08/01 02:19:44;;;;;;;3.63;2.60;;;;;;;;;;12971037;22;20093;-83
2022/08/01 02:24:52;;;;;;;5.70;2.83;;;;;;;;;;12917410;22;20114;-83
2022/08/01 02:30:21;;;;;;;3.38;2.42;;;;;;;;;;12921334;22;20089;-83
2022/08/01 02:35:48;;;;;;;3.15;2.22;;;;;;;;;;12943536;22;20481;-83
2022/08/01 02:41:21;;;;;;;3.28;2.30;;;;;;;;;;12972673;22;20027;-82
2022/08/01 02:46:31;;;;;;;2.67;2.10;;;;;;;;;;12921435;22;20062;-82
2022/08/01 02:51:40;;;;;;;3.03;2.22;;;;;;;;;;12971662;22;20029;-82
2022/08/01 02:56:58;;;;;;;4.85;2.13;;;;;;;;;;12917615;22;20355;-83
2022/08/01 03:02:13;;;;;;;3.17;2.45;;;;;;;;;;12942170;22;20548;-83
2022/08/01 03:07:23;;;;;;;3.67;1.92;;;;;;;;;;12943836;22;20019;-83
2022/08/01 03:12:49;;;;;;;3.00;2.25;;;;;;;;;;12969990;22;20039;-83
2022/08/01 03:18:00;;;;;;;4.65;2.33;;;;;;;;;;12917882;22;20390;-83
2022/08/01 03:23:11;;;;;;;4.60;2.38;;;;;;;;;;12943719;22;20098;-82
2022/08/01 03:28:27;;;;;;;3.67;2.38;;;;;;;;;;12993852;22;20059;-81
2022/08/01 03:33:41;;;;;;;3.08;2.25;;;;;;;;;;12971673;22;20015;-83
2022/08/01 03:38:58;;;;;;;4.05;2.85;;;;;;;;;;12947967;22;20026;-83
2022/08/01 03:44:13;;;;;;;3.50;2.45;;;;;;;;;;12971190;22;20012;-82
2022/08/01 03:49:19;;;;;;;3.65;2.67;;;;;;;;;;12945014;22;20378;-83
2022/08/01 03:54:36;;;;;;;5.05;2.47;;;;;;;;;;12942024;22;20032;-83
2022/08/01 03:59:43;;;;;;;3.92;2.90;;;;;;;;;;12943062;22;20047;-83
2022/08/01 04:04:49;;;;;;;2.70;2.17;;;;;;;;;;12974244;22;20016;-82
2022/08/01 04:10:04;;;;;;;3.75;2.38;;;;;;;;;;12947700;22;20073;-82
2022/08/01 04:15:10;;;;;;;5.88;2.88;;;;;;;;;;12971688;22;20449;-83
2022/08/01 04:20:18;;;;;;;5.30;2.20;;;;;;;;;;12974089;22;20107;-82
2022/08/01 04:25:35;;;;;;;4.97;2.47;;;;;;;;;;12945886;22;20148;-82
2022/08/01 04:30:50;;;;;;;2.47;1.67;;;;;;;;;;12945430;22;20322;-82
2022/08/01 04:36:09;;;;;;;3.38;2.67;;;;;;;;;;12945920;22;20437;-82
2022/08/01 04:41:19;;;;;;;4.55;2.30;;;;;;;;;;12974452;22;20358;-83
2022/08/01 04:51:57;;;;;;;5.57;3.33;;;;;;;;;;12941419;22;20038;-82
2022/08/01 04:57:18;;;;;;;3.90;2.13;;;;;;;;;;12995008;22;20031;-83
2022/08/01 05:02:33;;;;;;;3.30;1.80;;;;;;;;;;12974588;22;20093;-82
2022/08/01 05:07:42;;;;;;;4.38;2.53;;;;;;;;;;12943259;22;20011;-82
2022/08/01 05:12:57;;;;;;;4.53;2.78;;;;;;;;;;12972767;22;20103;-82
2022/08/01 05:18:03;;;;;;;3.95;2.70;;;;;;;;;;12973133;22;20034;-83
2022/08/01 05:23:12;;;;;;;3.65;2.15;;;;;;;;;;12920875;22;20499;-83
2022/08/01 05:28:44;;;;;;;4.10;2.50;;;;;;;;;;12973814;22;20093;-82
2022/08/01 05:33:55;;;;;;;4.95;2.28;;;;;;;;;;12994408;22;20043;-82
2022/08/01 05:39:01;;;;;;;4.45;2.70;;;;;;;;;;12947003;22;20024;-82
2022/08/01 05:44:17;;;;;;;4.13;2.45;;;;;;;;;;12947266;22;20012;-82
2022/08/01 05:49:23;;;;;;;4.30;1.58;;;;;;;;;;12946329;22;20028;-82
2022/08/01 05:54:51;;;;;;;6.03;2.45;;;;;;;;;;12979075;22;20016;-83
2022/08/01 06:00:04;;;;;;;4.90;2.45;;;;;;;;;;12994095;22;20366;-82
2022/08/01 06:05:14;;;;;;;6.07;2.47;;;;;;;;;;12974587;22;20380;-82
2022/08/01 06:10:20;;;;;;;2.95;2.17;;;;;;;;;;12974341;22;20439;-81
2022/08/01 06:15:37;;;;;;;3.53;2.35;;;;;;;;;;12944994;22;20123;-82
2022/08/01 06:20:44;;;;;;;3.00;2.03;;;;;;;;;;12921832;22;20030;-82
2022/08/01 06:25:49;;;;;;;4.40;2.40;;;;;;;;;;12993076;22;20198;-82
2022/08/01 06:31:02;;;;;;;3.83;2.30;;;;;;;;;;12947156;22;20161;-82
2022/08/01 06:41:35;;;;;;;4.03;2.70;;;;;;;;;;12941937;22;20043;-82
2022/08/01 06:46:44;;;;;;;3.33;2.50;;;;;;;;;;12944846;22;20099;-82
2022/08/01 06:51:56;;;;;;;4.00;2.03;;;;;;;;;;12945410;22;20015;-81
2022/08/01 06:57:03;;;;;;;6.47;2.97;;;;;;;;;;12944768;22;20038;-82
2022/08/01 07:02:13;;;;;;;5.25;2.58;;;;;;;;;;12944778;22;20085;-82
2022/08/01 07:07:29;;;;;;;4.75;2.53;;;;;;;;;;12944824;22;20102;-83
2022/08/01 07:12:45;;;;;;;5.10;2.78;;;;;;;;;;13006057;22;20015;-83
2022/08/01 07:18:09;;;;;;;3.53;2.50;;;;;;;;;;13035129;22;20015;-83
2022/08/01 07:23:18;;;;;;;3.70;2.70;;;;;;;;;;13041110;22;20023;-83
2022/08/01 07:28:36;;;;;;;4.28;2.70;;;;;;;;;;13045097;22;20035;-83
2022/08/01 07:33:55;;;;;;;3.63;2.58;;;;;;;;;;13041143;22;20019;-82
2022/08/01 07:39:14;;;;;;;4.30;2.67;;;;;;;;;;13040508;22;20015;-82
2022/08/01 07:44:26;;;;;;;3.00;2.70;;;;;;;;;;13012130;22;20535;-83
2022/08/01 07:49:39;;;;;;;2.55;1.95;;;;;;;;;;13046158;22;20023;-83
2022/08/01 07:54:48;;;;;;;4.93;2.88;;;;;;;;;;13038054;22;20482;-83
2022/08/01 07:59:58;;;;;;;9.70;3.50;;;;;;;;;;13013403;22;20361;-84
2022/08/01 08:05:08;;;;;;;6.15;3.03;;;;;;;;;;13047551;22;20094;-84
2022/08/01 08:10:16;;;;;;;3.33;3.03;;;;;;;;;;13035822;22;20080;-83
2022/08/01 08:15:23;;;;;;;4.45;2.80;;;;;;;;;;12974925;22;20070;-82
2022/08/01 08:20:35;;;;;;;7.82;3.40;;;;;;;;;;12958596;22;20097;-84
2022/08/01 08:25:40;;;;;;;4.22;3.08;;;;;;;;;;12952828;22;20532;-84
2022/08/01 08:30:55;;;;;;;4.32;2.95;;;;;;;;;;12982668;22;20028;-84
2022/08/01 08:36:25;;;;;;;7.30;2.85;;;;;;;;;;12960703;22;20418;-86
2022/08/01 08:41:36;;;;;;;3.92;2.70;;;;;;;;;;12940093;22;20099;-85
2022/08/01 08:46:43;;;;;;;4.35;2.90;;;;;;;;;;12953376;22;20012;-84
2022/08/01 08:51:54;;;;;;;4.82;3.00;;;;;;;;;;12931046;22;20028;-84
2022/08/01 08:57:06;;;;;;;4.20;2.80;;;;;;;;;;12936090;22;20450;-85
2022/08/01 09:02:22;;;;;;;3.03;2.83;;;;;;;;;;12978654;22;20340;-84
2022/08/01 09:07:42;;;;;;;4.85;3.22;;;;;;;;;;12995967;22;20019;-85
2022/08/01 09:13:11;;;;;;;3.72;3.08;;;;;;;;;;12976960;22;20406;-86
2022/08/01 09:18:33;;;;;;;3.47;3.17;;;;;;;;;;12970722;22;20483;-84
2022/08/01 09:24:02;;;;;;;3.42;2.90;;;;;;;;;;12974125;22;20043;-86
2022/08/01 09:29:07;;;;;;;3.60;2.70;;;;;;;;;;12922411;22;20043;-85
2022/08/01 09:34:14;;;;;;;3.55;3.25;;;;;;;;;;12975987;22;20020;-85
2022/08/01 09:39:31;;;;;;;4.18;2.70;;;;;;;;;;12946050;22;20020;-86
2022/08/01 09:44:45;;;;;;;2.70;2.50;;;;;;;;;;12958706;22;20024;-86
2022/08/01 09:50:00;;;;;;;3.05;2.80;;;;;;;;;;12951418;22;20372;-86
2022/08/01 09:55:23;;;;;;;8.88;3.25;;;;;;;;;;12977267;22;20015;-86
2022/08/01 10:00:42;;;;;;;3.30;2.97;;;;;;;;;;12956545;22;20083;-87
2022/08/01 10:05:56;;;;;;;3.17;2.88;;;;;;;;;;12963595;22;20046;-86
2022/08/01 10:16:41;;;;;;;3.30;2.90;;;;;;;;;;12973513;22;19919;-87
2022/08/01 10:21:49;;;;;;;2.80;2.60;;;;;;;;;;12950450;22;20023;-88
2022/08/01 10:27:07;;;;;;;3.15;2.85;;;;;;;;;;12957144;22;20079;-86
2022/08/01 10:32:31;;;;;;;4.68;2.90;;;;;;;;;;12983666;22;20098;-86
2022/08/01 10:37:38;;;;;;;4.53;3.13;;;;;;;;;;12960247;22;20023;-86
2022/08/01 10:42:58;;;;;;;3.97;3.25;;;;;;;;;;12984086;22;20054;-87
2022/08/01 10:48:13;;;;;;;2.88;2.45;;;;;;;;;;12925512;22;20016;-87
2022/08/01 10:53:27;;;;;;;3.85;2.58;;;;;;;;;;12977979;22;20031;-86
2022/08/01 10:58:47;;;;;;;2.72;2.53;;;;;;;;;;12947982;22;20020;-86
2022/08/01 11:04:22;;;;;;;2.90;2.70;;;;;;;;;;12961072;22;20027;-87
2022/08/01 11:09:31;;;;;;;3.63;2.45;;;;;;;;;;12948835;22;20366;-87
2022/08/01 11:15:00;;;;;;;2.30;2.20;;;;;;;;;;12946385;22;20366;-88
2022/08/01 11:20:16;;;;;;;2.47;2.38;;;;;;;;;;12977599;22;20016;-87
2022/08/01 11:25:49;;;;;;;4.10;2.47;;;;;;;;;;12975776;22;20011;-86
2022/08/01 11:31:47;;;;;;;2.42;2.22;;;;;;;;;;12981495;22;20023;-87
2022/08/01 11:37:24;;;;;;;4.30;2.10;;;;;;;;;;12951935;22;20579;-86
2022/08/01 11:42:34;;;;;;;1.98;1.80;;;;;;;;;;12994595;22;20463;-86
2022/08/01 11:47:53;;;;;;;1.90;1.80;;;;;;;;;;12946120;22;20359;-87
2022/08/01 11:53:18;;;;;;;2.40;2.20;;;;;;;;;;12973199;22;20194;-87
2022/08/01 11:58:41;;;;;;;2.55;2.30;;;;;;;;;;12991425;22;20055;-86
2022/08/01 12:03:58;;;;;;;1.40;1.30;;;;;;;;;;12944229;22;20039;-87
2022/08/01 12:14:33;;;;;;;1.33;1.23;;;;;;;;;;10511059;28;20409;-87
2022/08/01 12:19:38;;;;;;;1.60;1.50;;;;;;;;;;10474079;28;20108;-86
2022/08/01 12:24:42;;;;;;;8.07;2.13;;;;;;;;;;10474448;28;20036;-87
2022/08/01 12:29:47;;;;;;;2.47;1.90;;;;;;;;;;10472434;28;20047;-86
2022/08/01 12:34:50;;;;;;;2.03;1.48;;;;;;;;;;10477499;28;20067;-86
2022/08/01 12:39:53;;;;;;;1.63;1.50;;;;;;;;;;10470197;28;20056;-86
2022/08/01 12:44:57;;;;;;;2.97;1.95;;;;;;;;;;10473386;28;20036;-86
2022/08/01 12:50:00;;;;;;;3.80;1.75;;;;;;;;;;10471516;28;20131;-86
2022/08/01 12:55:10;;;;;;;3.50;1.88;;;;;;;;;;10481690;28;20038;-86
2022/08/01 13:00:18;;;;;;;6.15;2.22;;;;;;;;;;10477950;28;20494;-87
2022/08/01 13:05:25;;;;;;;2.03;1.42;;;;;;;;;;10476651;28;20109;-88
2022/08/01 13:10:29;;;;;;;1.35;1.23;;;;;;;;;;10473233;28;20757;-87
2022/08/01 13:15:34;;;;;;;2.70;1.38;;;;;;;;;;10478187;28;20048;-85
2022/08/01 13:20:43;;;;;;;3.00;1.38;;;;;;;;;;10476223;28;20045;-87
2022/08/01 13:25:54;;;;;;;2.03;0.93;;;;;;;;;;10445888;28;20517;-86
2022/08/01 13:31:00;;;;;;;2.08;1.23;;;;;;;;;;10444616;28;20144;-86
2022/08/01 13:36:03;;;;;;;7.28;3.58;;;;;;;;;;10448700;28;20036;-86
2022/08/01 13:41:07;;;;;;;1.98;1.33;;;;;;;;;;10477460;28;20035;-86
2022/08/01 13:46:14;;;;;;;2.63;1.13;;;;;;;;;;10438182;28;20616;-86
2022/08/01 13:51:20;;;;;;;2.30;1.08;;;;;;;;;;10442568;28;20132;-86
2022/08/01 13:56:24;;;;;;;1.10;1.00;;;;;;;;;;10441436;28;20104;-86
2022/08/01 14:01:28;;;;;;;1.60;1.20;;;;;;;;;;10442675;28;20043;-86
2022/08/01 14:06:36;;;;;;;2.00;1.10;;;;;;;;;;10443250;28;20120;-86
2022/08/01 14:11:41;;;;;;;1.15;0.90;;;;;;;;;;10447052;28;20115;-85
2022/08/01 14:16:49;;;;;;;1.20;1.05;;;;;;;;;;10439443;28;20042;-85
2022/08/01 14:21:53;;;;;;;2.75;1.50;;;;;;;;;;10445797;28;20037;-85
2022/08/01 14:26:56;;;;;;;4.13;2.15;;;;;;;;;;10435128;28;20422;-85
2022/08/01 14:32:00;;;;;;;2.35;1.55;;;;;;;;;;10442546;28;20056;-85
2022/08/01 14:37:09;;;;;;;4.40;1.83;;;;;;;;;;10444253;28;20037;-85
2022/08/01 14:42:12;;;;;;;3.58;1.50;;;;;;;;;;10442617;28;20033;-84
2022/08/01 14:47:17;;;;;;;4.55;1.50;;;;;;;;;;10438702;28;20098;-84
2022/08/01 14:52:24;;;;;;;3.60;1.70;;;;;;;;;;10439047;28;20132;-85
2022/08/01 14:57:27;;;;;;;2.13;1.45;;;;;;;;;;10440958;28;20136;-84
2022/08/01 15:02:31;;;;;;;4.00;2.00;;;;;;;;;;10439789;28;20593;-85
2022/08/01 15:07:34;;;;;;;5.93;2.28;;;;;;;;;;10442688;28;20123;-85
2022/08/01 15:12:54;;;;;;;3.38;1.80;;;;;;;;;;10441435;28;20037;-85
2022/08/01 15:17:58;;;;;;;6.32;2.00;;;;;;;;;;10437552;28;20033;-85
2022/08/01 15:23:01;;;;;;;4.85;1.80;;;;;;;;;;10442955;28;20148;-84
2022/08/01 15:28:04;;;;;;;3.22;1.90;;;;;;;;;;10441511;28;20044;-84
2022/08/01 15:33:08;;;;;;;10.25;2.75;;;;;;;;;;10435242;28;20636;-84
2022/08/01 15:38:12;;;;;;;5.25;2.38;;;;;;;;;;10438830;28;20040;-84
2022/08/01 15:43:15;;;;;;;5.82;3.00;;;;;;;;;;10443889;28;20075;-84
2022/08/01 15:48:19;;;;;;;5.30;2.88;;;;;;;;;;10456795;28;20045;-84
2022/08/01 15:53:23;;;;;;;5.63;3.13;;;;;;;;;;10440034;28;20489;-84
2022/08/01 15:58:26;;;;;;;6.18;3.38;;;;;;;;;;10441167;28;20040;-84
2022/08/01 16:03:31;;;;;;;5.57;2.10;;;;;;;;;;10444014;28;20029;-84
2022/08/01 16:08:34;;;;;;;5.95;2.53;;;;;;;;;;10435566;28;20040;-84
2022/08/01 16:13:37;;;;;;;7.30;3.13;;;;;;;;;;10435532;28;20048;-84
2022/08/01 16:18:41;;;;;;;2.50;1.70;;;;;;;;;;10433910;28;20487;-84
2022/08/01 16:23:44;;;;;;;5.13;2.28;;;;;;;;;;10446695;28;20406;-85
2022/08/01 16:28:51;;;;;;;3.13;1.73;;;;;;;;;;10436340;28;20067;-84
2022/08/01 16:33:55;;;;;;;4.63;1.58;;;;;;;;;;10436793;28;20543;-84
2022/08/01 16:39:06;;;;;;;4.88;1.98;;;;;;;;;;10433378;28;20094;-85
2022/08/01 16:44:09;;;;;;;2.17;1.48;;;;;;;;;;10438711;28;20041;-84
2022/08/01 16:49:11;;;;;;;;;;;;;;;;;;10439685;28;20512;-83
2022/08/01 16:54:16;;;;;;;3.42;1.60;;;;;;;;;;10439235;28;19920;-83
2022/08/01 16:59:27;;;;;;;;;;;;;;;;;;10440862;28;20037;-84
2022/08/01 17:04:30;;;;;;;2.60;1.53;;;;;;;;;;10440178;28;20023;-84
2022/08/01 17:09:32;;;;;;;;;;;;;;;;;;10447237;28;20095;-84
2022/08/01 17:14:38;;;;;;;3.47;2.08;;;;;;;;;;10443727;28;19921;-83
2022/08/01 17:19:42;;;;;;;6.25;3.38;;;;;;;;;;10438102;28;20131;-83
2022/08/01 17:24:45;;;;;;;8.68;4.10;;;;;;;;;;10442311;28;20081;-83
2022/08/01 17:29:49;;;;;;;4.55;2.38;;;;;;;;;;10444685;28;20477;-84
2022/08/01 17:34:51;;;;;;;2.65;1.70;;;;;;;;;;10444051;28;20094;-84
2022/08/01 17:39:54;;;;;;;3.45;1.90;;;;;;;;;;10441835;28;20378;-85
2022/08/01 17:44:58;;;;;;;4.07;2.17;;;;;;;;;;10444881;28;20456;-84
2022/08/01 17:50:03;;;;;;;5.10;2.10;;;;;;;;;;10445669;28;20045;-83
2022/08/01 17:55:06;;;;;;;2.88;1.50;;;;;;;;;;10442768;28;20047;-83
2022/08/01 18:00:31;;;;;;;2.03;1.20;;;;;;;;;;10441908;28;20191;-84
2022/08/01 18:05:35;;;;;;;3.20;1.60;;;;;;;;;;10442382;28;20102;-83
2022/08/01 18:10:39;;;;;;;5.00;1.80;;;;;;;;;;10440735;28;20060;-84
2022/08/01 18:15:45;;;;;;;3.63;1.42;;;;;;;;;;10445688;28;20515;-84
2022/08/01 18:20:52;;;;;;;4.88;2.03;;;;;;;;;;10445666;28;20048;-84
2022/08/01 18:26:00;;;;;;;3.95;1.67;;;;;;;;;;10446124;28;20398;-83
2022/08/01 18:31:06;;;;;;;3.42;1.60;;;;;;;;;;10419469;28;20037;-84
2022/08/01 18:36:08;;;;;;;4.85;2.40;;;;;;;;;;10452185;28;20032;-83
2022/08/01 18:41:32;;;;;;;5.75;1.77;;;;;;;;;;10441628;28;20033;-83
2022/08/01 18:46:38;;;;;;;4.10;1.90;;;;;;;;;;10442842;28;20034;-84
2022/08/01 18:51:42;;;;;;;3.00;1.80;;;;;;;;;;10440149;28;20040;-83
2022/08/01 18:56:46;;;;;;;4.53;2.10;;;;;;;;;;10439585;28;20052;-83
2022/08/01 19:01:49;;;;;;;;;;;;;;;;;;10443903;28;20459;-83
2022/08/01 19:06:54;;;;;;;5.53;2.00;;;;;;;;;;10439238;28;19931;-83
2022/08/01 19:11:57;;;;;;;4.53;1.63;;;;;;;;;;10433713;28;20489;-83
2022/08/01 19:17:00;;;;;;;4.72;2.00;;;;;;;;;;10435450;28;20501;-84
2022/08/01 19:22:03;;;;;;;;;;;;;;;;;;10437978;28;20045;-85
2022/08/01 19:27:09;;;;;;;9.10;2.72;;;;;;;;;;10438834;28;19932;-83
2022/08/01 19:32:13;;;;;;;4.70;2.40;;;;;;;;;;10444619;28;20045;-83
2022/08/01 19:37:15;;;;;;;7.20;3.25;;;;;;;;;;10437457;28;20056;-83
2022/08/01 19:42:20;;;;;;;9.02;2.90;;;;;;;;;;10433473;28;20079;-83
2022/08/01 19:47:23;;;;;;;5.10;2.00;;;;;;;;;;10470652;28;20053;-83
2022/08/01 19:52:30;;;;;;;6.03;3.25;;;;;;;;;;10436265;28;20041;-82
2022/08/01 19:57:37;;;;;;;9.15;3.25;;;;;;;;;;10437787;28;20098;-83
2022/08/01 20:02:50;;;;;;;9.48;2.97;;;;;;;;;;10432877;28;20041;-83
2022/08/01 20:07:54;;;;;;;5.70;2.55;;;;;;;;;;10442313;28;20040;-82
2022/08/01 20:12:59;;;;;;;5.75;2.40;;;;;;;;;;10439856;28;20060;-83
2022/08/01 20:18:02;;;;;;;5.80;2.50;;;;;;;;;;10440841;28;20528;-82
2022/08/01 20:23:08;;;;;;;7.43;3.58;;;;;;;;;;10440810;28;20120;-82
2022/08/01 20:28:25;;;;;;;6.72;2.53;;;;;;;;;;10440151;28;20147;-83
2022/08/01 20:33:29;;;;;;;4.60;2.45;;;;;;;;;;10438013;28;20025;-82
2022/08/01 20:38:33;;;;;;;;;;;;;;;;;;10445088;28;20056;-83
2022/08/01 20:43:38;;;;;;;7.18;3.13;;;;;;;;;;10449167;28;20039;-82
2022/08/01 20:48:43;;;;;;;24.05;11.68;;;;;;;;;;10458033;28;20041;-83
2022/08/01 20:53:51;;;;;;;7.22;2.47;;;;;;;;;;10434991;28;20138;-83
2022/08/01 20:59:00;;;;;;;6.72;2.53;;;;;;;;;;10457195;28;20454;-83
2022/08/01 21:04:09;;;;;;;7.07;3.15;;;;;;;;;;10445895;28;20031;-83
2022/08/01 21:09:13;;;;;;;4.72;2.65;;;;;;;;;;10446430;28;20033;-83
2022/08/01 21:14:19;;;;;;;7.38;2.88;;;;;;;;;;10442303;28;20094;-82
2022/08/01 21:19:26;;;;;;;6.47;2.92;;;;;;;;;;10445901;28;20519;-82
2022/08/01 21:24:32;;;;;;;6.35;2.47;;;;;;;;;;10448523;28;20037;-82
2022/08/01 21:29:37;;;;;;;4.60;1.92;;;;;;;;;;10448546;28;20150;-81
2022/08/01 21:34:41;;;;;;;4.82;2.47;;;;;;;;;;10442035;28;20471;-84
2022/08/01 21:39:43;;;;;;;;;;;;;;;;;;10442587;28;20134;-84
2022/08/01 21:44:47;;;;;;;3.70;1.90;;;;;;;;;;10440774;28;19964;-83
2022/08/01 21:49:50;;;;;;;3.65;2.25;;;;;;;;;;10442059;28;20043;-83
2022/08/01 21:55:00;;;;;;;2.83;1.52;;;;;;;;;;10440141;28;20051;-83
2022/08/01 22:00:08;;;;;;;2.55;1.73;;;;;;;;;;10445809;28;20041;-83
2022/08/01 22:05:12;;;;;;;4.75;1.63;;;;;;;;;;10440927;28;20106;-83
2022/08/01 22:10:16;;;;;;;2.25;1.70;;;;;;;;;;10443133;28;20044;-84
2022/08/01 22:15:24;;;;;;;1.85;1.10;;;;;;;;;;10441231;28;20041;-82
2022/08/01 22:20:47;;;;;;;2.83;1.20;;;;;;;;;;10442516;28;20486;-84
2022/08/01 22:25:50;;;;;;;;;;;;;;;;;;10442650;28;20124;-84
2022/08/01 22:30:55;;;;;;;3.05;1.00;;;;;;;;;;10438244;28;19921;-84
2022/08/01 22:35:58;;;;;;;3.20;1.15;;;;;;;;;;10470364;28;20046;-83
2022/08/01 22:41:02;;;;;;;1.15;0.77;;;;;;;;;;10446416;28;20463;-83
2022/08/01 22:46:14;;;;;;;2.08;0.90;;;;;;;;;;10436572;28;20029;-84
2022/08/01 22:51:25;;;;;;;2.63;0.65;;;;;;;;;;10439802;28;20041;-84
2022/08/01 22:56:31;;;;;;;2.05;0.88;;;;;;;;;;10440541;28;20033;-84
2022/08/01 23:01:41;;;;;;;1.58;0.65;;;;;;;;;;10440149;28;20374;-83
2022/08/01 23:06:50;;;;;;;2.10;1.17;;;;;;;;;;10439064;28;20466;-83
2022/08/01 23:11:54;;;;;;;1.73;0.70;;;;;;;;;;10437781;28;20071;-83
2022/08/01 23:17:01;;;;;;;0.60;0.50;;;;;;;;;;10435466;28;20067;-83
2022/08/01 23:22:27;;;;;;;1.40;1.00;;;;;;;;;;10436019;28;20466;-83
2022/08/01 23:27:30;;;;;;;1.67;0.90;;;;;;;;;;10441194;28;20115;-83
2022/08/01 23:32:55;;;;;;;1.63;0.88;;;;;;;;;;10439273;28;20057;-83
2022/08/01 23:37:59;;;;;;;1.88;1.00;;;;;;;;;;10448556;28;20041;-83
2022/08/01 23:43:05;;;;;;;1.10;0.90;;;;;;;;;;10438767;28;20046;-83
2022/08/01 23:48:20;;;;;;;1.45;1.00;;;;;;;;;;10470999;28;20056;-83
2022/08/01 23:53:25;;;;;;;1.92;0.90;;;;;;;;;;10437265;28;20380;-83
2022/08/01 23:58:32;;;;;;;1.65;0.98;;;;;;;;;;10436531;28;20076;-83
